sensor_id;sensor_type;location;lat;lon;timestamp;temperature;humidity
22666;DHT22;11499;49.486;11.104;2022-08-01T00:00:00;18.80;93.70
22666;DHT22;11499;49.486;11.104;2022-08-01T00:04:11;18.70;93.90
22666;DHT22;11499;49.486;11.104;2022-08-01T00:06:37;18.60;94.30
22666;DHT22;11499;49.486;11.104;2022-08-01T00:09:02;18.60;94.60
22666;DHT22;11499;49.486;11.104;2022-08-01T00:11:28;18.50;94.70
22666;DHT22;11499;49.486;11.104;2022-08-01T00:13:53;18.50;94.90
22666;DHT22;11499;49.486;11.104;2022-08-01T00:16:19;18.40;95.00
22666;DHT22;11499;49.486;11.104;2022-08-01T00:18:48;18.40;95.20
22666;DHT22;11499;49.486;11.104;2022-08-01T00:21:14;18.40;95.30
22666;DHT22;11499;49.486;11.104;2022-08-01T00:23:39;18.40;95.60
22666;DHT22;11499;49.486;11.104;2022-08-01T00:26:05;18.40;95.80
22666;DHT22;11499;49.486;11.104;2022-08-01T00:31:31;18.30;95.90
22666;DHT22;11499;49.486;11.104;2022-08-01T00:33:57;18.30;96.20
22666;DHT22;11499;49.486;11.104;2022-08-01T00:36:22;18.20;96.20
22666;DHT22;11499;49.486;11.104;2022-08-01T00:38:48;18.20;96.30
22666;DHT22;11499;49.486;11.104;2022-08-01T00:41:13;18.10;96.20
22666;DHT22;11499;49.486;11.104;2022-08-01T00:43:39;18.10;96.40
22666;DHT22;11499;49.486;11.104;2022-08-01T00:46:04;18.10;96.50
22666;DHT22;11499;49.486;11.104;2022-08-01T00:48:30;18.00;96.60
22666;DHT22;11499;49.486;11.104;2022-08-01T00:50:55;18.00;96.80
22666;DHT22;11499;49.486;11.104;2022-08-01T00:53:21;18.00;97.00
22666;DHT22;11499;49.486;11.104;2022-08-01T00:58:46;18.10;97.10
22666;DHT22;11499;49.486;11.104;2022-08-01T01:01:11;18.10;97.20
22666;DHT22;11499;49.486;11.104;2022-08-01T01:03:37;18.10;97.30
22666;DHT22;11499;49.486;11.104;2022-08-01T01:08:46;18.10;97.60
22666;DHT22;11499;49.486;11.104;2022-08-01T01:11:26;18.10;97.50
22666;DHT22;11499;49.486;11.104;2022-08-01T01:14:00;18.10;97.50
22666;DHT22;11499;49.486;11.104;2022-08-01T01:16:28;18.20;97.50
22666;DHT22;11499;49.486;11.104;2022-08-01T01:18:59;18.20;97.30
22666;DHT22;11499;49.486;11.104;2022-08-01T01:26:17;18.10;97.50
22666;DHT22;11499;49.486;11.104;2022-08-01T01:28:56;18.20;97.80
22666;DHT22;11499;49.486;11.104;2022-08-01T01:31:24;18.40;97.70
22666;DHT22;11499;49.486;11.104;2022-08-01T01:33:51;18.40;97.60
22666;DHT22;11499;49.486;11.104;2022-08-01T01:36:19;18.30;97.60
22666;DHT22;11499;49.486;11.104;2022-08-01T01:38:47;18.30;97.80
22666;DHT22;11499;49.486;11.104;2022-08-01T01:41:15;18.30;97.90
22666;DHT22;11499;49.486;11.104;2022-08-01T01:43:42;18.30;98.00
22666;DHT22;11499;49.486;11.104;2022-08-01T01:46:11;18.30;98.10
22666;DHT22;11499;49.486;11.104;2022-08-01T01:48:38;18.20;98.10
22666;DHT22;11499;49.486;11.104;2022-08-01T01:53:33;18.20;98.20
22666;DHT22;11499;49.486;11.104;2022-08-01T01:56:01;18.10;98.10
22666;DHT22;11499;49.486;11.104;2022-08-01T01:58:31;18.00;98.20
22666;DHT22;11499;49.486;11.104;2022-08-01T02:00:58;17.90;98.40
22666;DHT22;11499;49.486;11.104;2022-08-01T02:03:26;17.90;98.60
22666;DHT22;11499;49.486;11.104;2022-08-01T02:05:53;17.90;98.80
22666;DHT22;11499;49.486;11.104;2022-08-01T02:08:20;18.00;98.70
22666;DHT22;11499;49.486;11.104;2022-08-01T02:10:47;18.10;98.70
22666;DHT22;11499;49.486;11.104;2022-08-01T02:13:37;18.10;98.60
22666;DHT22;11499;49.486;11.104;2022-08-01T02:16:04;18.30;98.30
22666;DHT22;11499;49.486;11.104;2022-08-01T02:21:09;18.50;98.10
22666;DHT22;11499;49.486;11.104;2022-08-01T02:23:37;18.60;98.10
22666;DHT22;11499;49.486;11.104;2022-08-01T02:26:08;18.60;98.10
22666;DHT22;11499;49.486;11.104;2022-08-01T02:28:41;18.60;98.10
22666;DHT22;11499;49.486;11.104;2022-08-01T02:31:13;18.60;98.30
22666;DHT22;11499;49.486;11.104;2022-08-01T02:33:43;18.60;98.40
22666;DHT22;11499;49.486;11.104;2022-08-01T02:36:11;18.50;98.50
22666;DHT22;11499;49.486;11.104;2022-08-01T02:38:41;18.50;98.60
22666;DHT22;11499;49.486;11.104;2022-08-01T02:41:13;18.40;98.70
22666;DHT22;11499;49.486;11.104;2022-08-01T02:43:45;18.40;98.80
22666;DHT22;11499;49.486;11.104;2022-08-01T02:48:37;18.40;99.10
22666;DHT22;11499;49.486;11.104;2022-08-01T02:51:04;18.20;99.30
22666;DHT22;11499;49.486;11.104;2022-08-01T02:53:32;18.10;99.50
22666;DHT22;11499;49.486;11.104;2022-08-01T02:56:03;18.00;99.70
22666;DHT22;11499;49.486;11.104;2022-08-01T02:58:29;17.90;99.90
22666;DHT22;11499;49.486;11.104;2022-08-01T03:00:57;17.90;99.90
22666;DHT22;11499;49.486;11.104;2022-08-01T03:03:23;17.80;99.90
22666;DHT22;11499;49.486;11.104;2022-08-01T03:05:49;17.80;99.90
22666;DHT22;11499;49.486;11.104;2022-08-01T03:08:16;17.70;99.90
22666;DHT22;11499;49.486;11.104;2022-08-01T03:10:44;17.60;99.90
22666;DHT22;11499;49.486;11.104;2022-08-01T03:15:49;17.40;99.90
22666;DHT22;11499;49.486;11.104;2022-08-01T03:18:17;17.30;99.90
22666;DHT22;11499;49.486;11.104;2022-08-01T03:20:43;17.20;99.90
22666;DHT22;11499;49.486;11.104;2022-08-01T03:23:11;17.20;99.90
22666;DHT22;11499;49.486;11.104;2022-08-01T03:25:40;17.10;99.90
22666;DHT22;11499;49.486;11.104;2022-08-01T03:28:08;17.00;99.90
22666;DHT22;11499;49.486;11.104;2022-08-01T03:30:35;17.00;99.90
22666;DHT22;11499;49.486;11.104;2022-08-01T03:33:02;17.00;99.90
22666;DHT22;11499;49.486;11.104;2022-08-01T03:35:31;17.00;99.90
22666;DHT22;11499;49.486;11.104;2022-08-01T03:38:00;17.00;99.90
22666;DHT22;11499;49.486;11.104;2022-08-01T03:41:54;17.00;99.90
22666;DHT22;11499;49.486;11.104;2022-08-01T03:44:26;17.00;99.90
22666;DHT22;11499;49.486;11.104;2022-08-01T03:46:58;17.00;99.90
22666;DHT22;11499;49.486;11.104;2022-08-01T03:49:31;17.00;99.90
22666;DHT22;11499;49.486;11.104;2022-08-01T03:51:59;17.00;99.90
22666;DHT22;11499;49.486;11.104;2022-08-01T03:54:30;17.00;99.90
22666;DHT22;11499;49.486;11.104;2022-08-01T03:56:59;17.00;99.90
22666;DHT22;11499;49.486;11.104;2022-08-01T03:59:26;17.10;99.90
22666;DHT22;11499;49.486;11.104;2022-08-01T04:01:52;17.20;99.90
22666;DHT22;11499;49.486;11.104;2022-08-01T04:04:19;17.20;99.90
22666;DHT22;11499;49.486;11.104;2022-08-01T04:08:36;17.20;99.90
22666;DHT22;11499;49.486;11.104;2022-08-01T04:11:02;17.40;99.90
22666;DHT22;11499;49.486;11.104;2022-08-01T04:13:28;17.70;99.90
22666;DHT22;11499;49.486;11.104;2022-08-01T04:15:53;17.90;99.90
22666;DHT22;11499;49.486;11.104;2022-08-01T04:18:19;18.10;99.90
22666;DHT22;11499;49.486;11.104;2022-08-01T04:20:46;18.60;99.90
22666;DHT22;11499;49.486;11.104;2022-08-01T04:23:15;19.00;99.90
22666;DHT22;11499;49.486;11.104;2022-08-01T04:25:42;19.00;99.90
22666;DHT22;11499;49.486;11.104;2022-08-01T04:28:10;19.10;99.90
22666;DHT22;11499;49.486;11.104;2022-08-01T04:30:42;18.90;99.90
22666;DHT22;11499;49.486;11.104;2022-08-01T04:35:48;18.80;99.90
22666;DHT22;11499;49.486;11.104;2022-08-01T04:38:19;19.30;99.90
22666;DHT22;11499;49.486;11.104;2022-08-01T04:40:46;19.70;99.90
22666;DHT22;11499;49.486;11.104;2022-08-01T04:43:14;20.60;99.90
22666;DHT22;11499;49.486;11.104;2022-08-01T04:45:40;21.50;98.30
22666;DHT22;11499;49.486;11.104;2022-08-01T04:48:06;21.80;97.00
22666;DHT22;11499;49.486;11.104;2022-08-01T04:50:34;21.70;96.70
22666;DHT22;11499;49.486;11.104;2022-08-01T04:53:00;21.40;96.80
22666;DHT22;11499;49.486;11.104;2022-08-01T04:55:28;21.30;97.00
22666;DHT22;11499;49.486;11.104;2022-08-01T04:57:54;21.10;97.10
22666;DHT22;11499;49.486;11.104;2022-08-01T05:03:03;21.00;97.60
22666;DHT22;11499;49.486;11.104;2022-08-01T05:05:29;21.00;97.50
22666;DHT22;11499;49.486;11.104;2022-08-01T05:07:55;21.10;97.50
22666;DHT22;11499;49.486;11.104;2022-08-01T05:10:21;21.20;97.30
22666;DHT22;11499;49.486;11.104;2022-08-01T05:12:47;21.20;97.30
22666;DHT22;11499;49.486;11.104;2022-08-01T05:15:12;21.40;97.20
22666;DHT22;11499;49.486;11.104;2022-08-01T05:17:38;21.50;97.10
22666;DHT22;11499;49.486;11.104;2022-08-01T05:20:03;21.60;96.80
22666;DHT22;11499;49.486;11.104;2022-08-01T05:22:31;21.60;96.70
22666;DHT22;11499;49.486;11.104;2022-08-01T05:24:57;21.70;96.70
22666;DHT22;11499;49.486;11.104;2022-08-01T05:30:16;21.70;96.60
22666;DHT22;11499;49.486;11.104;2022-08-01T05:32:42;22.00;96.60
22666;DHT22;11499;49.486;11.104;2022-08-01T05:35:08;21.70;96.60
22666;DHT22;11499;49.486;11.104;2022-08-01T05:37:34;22.10;96.50
22666;DHT22;11499;49.486;11.104;2022-08-01T05:40:00;22.70;95.30
22666;DHT22;11499;49.486;11.104;2022-08-01T05:42:26;23.20;94.70
22666;DHT22;11499;49.486;11.104;2022-08-01T05:44:51;23.40;94.40
22666;DHT22;11499;49.486;11.104;2022-08-01T05:47:17;23.20;94.70
22666;DHT22;11499;49.486;11.104;2022-08-01T05:49:43;22.90;95.00
22666;DHT22;11499;49.486;11.104;2022-08-01T05:52:09;23.50;94.80
22666;DHT22;11499;49.486;11.104;2022-08-01T05:57:33;23.20;94.50
22666;DHT22;11499;49.486;11.104;2022-08-01T05:59:59;23.60;94.40
22666;DHT22;11499;49.486;11.104;2022-08-01T06:02:24;23.90;93.80
22666;DHT22;11499;49.486;11.104;2022-08-01T06:04:50;24.20;93.70
22666;DHT22;11499;49.486;11.104;2022-08-01T06:07:15;24.40;93.40
22666;DHT22;11499;49.486;11.104;2022-08-01T06:09:41;24.50;93.20
22666;DHT22;11499;49.486;11.104;2022-08-01T06:12:06;24.20;93.30
22666;DHT22;11499;49.486;11.104;2022-08-01T06:14:32;23.90;93.70
22666;DHT22;11499;49.486;11.104;2022-08-01T06:16:57;24.10;93.80
22666;DHT22;11499;49.486;11.104;2022-08-01T06:19:23;23.60;94.50
22666;DHT22;11499;49.486;11.104;2022-08-01T06:24:46;23.10;95.20
22666;DHT22;11499;49.486;11.104;2022-08-01T06:27:11;23.40;95.30
22666;DHT22;11499;49.486;11.104;2022-08-01T06:29:37;23.60;95.20
22666;DHT22;11499;49.486;11.104;2022-08-01T06:32:02;23.00;95.70
22666;DHT22;11499;49.486;11.104;2022-08-01T06:34:28;23.20;95.80
22666;DHT22;11499;49.486;11.104;2022-08-01T06:36:54;23.50;95.50
22666;DHT22;11499;49.486;11.104;2022-08-01T06:39:19;23.30;95.80
22666;DHT22;11499;49.486;11.104;2022-08-01T06:41:45;22.80;96.40
22666;DHT22;11499;49.486;11.104;2022-08-01T06:44:12;22.70;96.80
22666;DHT22;11499;49.486;11.104;2022-08-01T06:46:38;22.60;96.90
22666;DHT22;11499;49.486;11.104;2022-08-01T06:52:02;22.60;97.40
22666;DHT22;11499;49.486;11.104;2022-08-01T06:54:28;22.30;97.60
22666;DHT22;11499;49.486;11.104;2022-08-01T06:56:54;22.40;97.60
22666;DHT22;11499;49.486;11.104;2022-08-01T06:59:19;22.30;97.90
22666;DHT22;11499;49.486;11.104;2022-08-01T07:01:45;22.50;97.60
22666;DHT22;11499;49.486;11.104;2022-08-01T07:04:10;22.60;97.70
22666;DHT22;11499;49.486;11.104;2022-08-01T07:06:36;22.70;97.60
22666;DHT22;11499;49.486;11.104;2022-08-01T07:09:02;22.80;97.40
22666;DHT22;11499;49.486;11.104;2022-08-01T07:11:28;23.00;97.30
22666;DHT22;11499;49.486;11.104;2022-08-01T07:13:54;22.90;97.30
22666;DHT22;11499;49.486;11.104;2022-08-01T07:18:45;23.20;97.10
22666;DHT22;11499;49.486;11.104;2022-08-01T07:21:11;23.10;97.10
22666;DHT22;11499;49.486;11.104;2022-08-01T07:23:37;23.00;97.20
22666;DHT22;11499;49.486;11.104;2022-08-01T07:26:03;23.10;96.70
22666;DHT22;11499;49.486;11.104;2022-08-01T07:28:29;23.10;96.90
22666;DHT22;11499;49.486;11.104;2022-08-01T07:30:54;23.60;96.40
22666;DHT22;11499;49.486;11.104;2022-08-01T07:33:20;24.10;95.90
22666;DHT22;11499;49.486;11.104;2022-08-01T07:35:46;24.50;95.30
22666;DHT22;11499;49.486;11.104;2022-08-01T07:38:11;24.50;95.10
22666;DHT22;11499;49.486;11.104;2022-08-01T07:40:37;23.90;95.30
22666;DHT22;11499;49.486;11.104;2022-08-01T07:45:41;24.00;95.60
22666;DHT22;11499;49.486;11.104;2022-08-01T07:48:07;24.20;95.30
22666;DHT22;11499;49.486;11.104;2022-08-01T07:50:33;24.50;94.50
22666;DHT22;11499;49.486;11.104;2022-08-01T07:52:59;24.50;94.40
22666;DHT22;11499;49.486;11.104;2022-08-01T07:55:25;24.80;94.20
22666;DHT22;11499;49.486;11.104;2022-08-01T07:57:51;24.70;94.10
22666;DHT22;11499;49.486;11.104;2022-08-01T08:00:17;24.70;93.70
22666;DHT22;11499;49.486;11.104;2022-08-01T08:02:43;24.00;94.40
22666;DHT22;11499;49.486;11.104;2022-08-01T08:05:10;24.10;94.60
22666;DHT22;11499;49.486;11.104;2022-08-01T08:07:35;23.60;95.20
22666;DHT22;11499;49.486;11.104;2022-08-01T08:12:46;24.50;94.40
22666;DHT22;11499;49.486;11.104;2022-08-01T08:15:13;24.30;93.80
22666;DHT22;11499;49.486;11.104;2022-08-01T08:17:39;24.20;94.30
22666;DHT22;11499;49.486;11.104;2022-08-01T08:20:06;24.00;94.40
22666;DHT22;11499;49.486;11.104;2022-08-01T08:22:31;24.20;94.20
22666;DHT22;11499;49.486;11.104;2022-08-01T08:24:57;24.80;93.70
22666;DHT22;11499;49.486;11.104;2022-08-01T08:27:22;25.20;93.30
22666;DHT22;11499;49.486;11.104;2022-08-01T08:29:48;24.80;93.20
22666;DHT22;11499;49.486;11.104;2022-08-01T08:32:13;24.40;93.30
22666;DHT22;11499;49.486;11.104;2022-08-01T08:34:39;24.10;93.60
22666;DHT22;11499;49.486;11.104;2022-08-01T08:39:46;24.90;93.40
22666;DHT22;11499;49.486;11.104;2022-08-01T08:42:12;25.20;92.20
22666;DHT22;11499;49.486;11.104;2022-08-01T08:44:41;25.10;91.90
22666;DHT22;11499;49.486;11.104;2022-08-01T08:47:07;25.10;91.90
22666;DHT22;11499;49.486;11.104;2022-08-01T08:49:35;24.40;92.60
22666;DHT22;11499;49.486;11.104;2022-08-01T08:52:02;24.30;92.50
22666;DHT22;11499;49.486;11.104;2022-08-01T08:54:29;23.80;93.10
22666;DHT22;11499;49.486;11.104;2022-08-01T08:56:56;24.20;93.20
22666;DHT22;11499;49.486;11.104;2022-08-01T08:59:22;24.30;92.90
22666;DHT22;11499;49.486;11.104;2022-08-01T09:01:52;24.70;92.40
22666;DHT22;11499;49.486;11.104;2022-08-01T09:06:10;24.70;92.30
22666;DHT22;11499;49.486;11.104;2022-08-01T09:08:36;25.00;92.00
22666;DHT22;11499;49.486;11.104;2022-08-01T09:11:01;25.10;91.30
22666;DHT22;11499;49.486;11.104;2022-08-01T09:13:27;25.10;90.80
22666;DHT22;11499;49.486;11.104;2022-08-01T09:15:54;25.60;90.60
22666;DHT22;11499;49.486;11.104;2022-08-01T09:21:17;26.70;86.80
22666;DHT22;11499;49.486;11.104;2022-08-01T09:23:49;26.90;85.70
22666;DHT22;11499;49.486;11.104;2022-08-01T09:26:20;27.30;84.10
22666;DHT22;11499;49.486;11.104;2022-08-01T09:28:47;28.00;82.20
22666;DHT22;11499;49.486;11.104;2022-08-01T09:32:59;28.00;80.80
22666;DHT22;11499;49.486;11.104;2022-08-01T09:35:35;25.70;85.90
22666;DHT22;11499;49.486;11.104;2022-08-01T09:38:19;25.40;86.80
22666;DHT22;11499;49.486;11.104;2022-08-01T09:43:19;25.00;87.70
22666;DHT22;11499;49.486;11.104;2022-08-01T09:45:45;24.70;88.60
22666;DHT22;11499;49.486;11.104;2022-08-01T09:48:10;24.90;89.00
22666;DHT22;11499;49.486;11.104;2022-08-01T09:50:42;25.00;88.30
22666;DHT22;11499;49.486;11.104;2022-08-01T09:53:09;25.60;87.30
22666;DHT22;11499;49.486;11.104;2022-08-01T09:58:48;26.50;86.00
22666;DHT22;11499;49.486;11.104;2022-08-01T10:01:14;27.00;83.50
22666;DHT22;11499;49.486;11.104;2022-08-01T10:03:39;27.10;82.10
22666;DHT22;11499;49.486;11.104;2022-08-01T10:06:21;26.40;84.20
22666;DHT22;11499;49.486;11.104;2022-08-01T10:08:47;26.50;84.80
22666;DHT22;11499;49.486;11.104;2022-08-01T10:11:13;27.10;83.10
22666;DHT22;11499;49.486;11.104;2022-08-01T10:13:39;27.30;81.20
22666;DHT22;11499;49.486;11.104;2022-08-01T10:16:06;27.40;80.80
22666;DHT22;11499;49.486;11.104;2022-08-01T10:18:34;27.10;80.80
22666;DHT22;11499;49.486;11.104;2022-08-01T10:21:01;27.60;78.80
22666;DHT22;11499;49.486;11.104;2022-08-01T10:25:04;27.70;78.30
22666;DHT22;11499;49.486;11.104;2022-08-01T10:27:32;28.40;76.90
22666;DHT22;11499;49.486;11.104;2022-08-01T10:29:59;27.30;75.80
22666;DHT22;11499;49.486;11.104;2022-08-01T10:32:29;26.60;77.20
22666;DHT22;11499;49.486;11.104;2022-08-01T10:34:55;26.80;77.10
22666;DHT22;11499;49.486;11.104;2022-08-01T10:37:22;27.60;76.00
22666;DHT22;11499;49.486;11.104;2022-08-01T10:39:50;27.70;74.70
22666;DHT22;11499;49.486;11.104;2022-08-01T10:42:18;27.90;75.00
22666;DHT22;11499;49.486;11.104;2022-08-01T10:44:44;29.00;72.30
22666;DHT22;11499;49.486;11.104;2022-08-01T10:47:21;28.10;73.90
22666;DHT22;11499;49.486;11.104;2022-08-01T10:50:15;27.60;75.00
22666;DHT22;11499;49.486;11.104;2022-08-01T10:58:23;27.60;72.90
22666;DHT22;11499;49.486;11.104;2022-08-01T11:01:25;27.30;73.30
22666;DHT22;11499;49.486;11.104;2022-08-01T11:09:05;27.90;72.10
22666;DHT22;11499;49.486;11.104;2022-08-01T11:11:58;27.60;71.90
22666;DHT22;11499;49.486;11.104;2022-08-01T11:16:26;27.50;71.40
22666;DHT22;11499;49.486;11.104;2022-08-01T11:18:52;28.10;70.60
22666;DHT22;11499;49.486;11.104;2022-08-01T11:21:17;29.00;67.40
22666;DHT22;11499;49.486;11.104;2022-08-01T11:23:48;29.50;67.00
22666;DHT22;11499;49.486;11.104;2022-08-01T11:26:15;29.30;65.60
22666;DHT22;11499;49.486;11.104;2022-08-01T11:28:42;28.00;69.20
22666;DHT22;11499;49.486;11.104;2022-08-01T11:38:44;28.40;68.20
22666;DHT22;11499;49.486;11.104;2022-08-01T11:43:31;28.50;68.30
22666;DHT22;11499;49.486;11.104;2022-08-01T11:45:56;28.40;67.70
22666;DHT22;11499;49.486;11.104;2022-08-01T11:48:24;28.20;68.10
22666;DHT22;11499;49.486;11.104;2022-08-01T11:50:51;28.40;68.40
22666;DHT22;11499;49.486;11.104;2022-08-01T11:53:17;28.10;68.50
22666;DHT22;11499;49.486;11.104;2022-08-01T11:55:49;28.40;68.40
22666;DHT22;11499;49.486;11.104;2022-08-01T11:58:24;27.90;68.00
22666;DHT22;11499;49.486;11.104;2022-08-01T12:00:54;28.20;68.20
22666;DHT22;11499;49.486;11.104;2022-08-01T12:03:25;28.40;68.30
22666;DHT22;11499;49.486;11.104;2022-08-01T12:05:53;28.10;69.00
22666;DHT22;11499;49.486;11.104;2022-08-01T12:10:21;27.90;69.70
22666;DHT22;11499;49.486;11.104;2022-08-01T12:12:49;27.60;70.20
22666;DHT22;11499;49.486;11.104;2022-08-01T12:15:16;27.50;70.80
22666;DHT22;11499;49.486;11.104;2022-08-01T12:17:56;27.20;72.20
22666;DHT22;11499;49.486;11.104;2022-08-01T12:20:23;27.00;72.30
22666;DHT22;11499;49.486;11.104;2022-08-01T12:22:56;27.10;72.20
22666;DHT22;11499;49.486;11.104;2022-08-01T12:25:22;26.80;72.40
22666;DHT22;11499;49.486;11.104;2022-08-01T12:27:48;27.00;72.70
22666;DHT22;11499;49.486;11.104;2022-08-01T12:30:19;27.50;71.60
22666;DHT22;11499;49.486;11.104;2022-08-01T12:32:48;27.60;71.10
22666;DHT22;11499;49.486;11.104;2022-08-01T12:37:28;27.60;71.30
22666;DHT22;11499;49.486;11.104;2022-08-01T12:39:54;27.60;71.60
22666;DHT22;11499;49.486;11.104;2022-08-01T12:42:21;28.00;69.90
22666;DHT22;11499;49.486;11.104;2022-08-01T12:44:50;28.10;69.60
22666;DHT22;11499;49.486;11.104;2022-08-01T12:47:18;27.70;70.40
22666;DHT22;11499;49.486;11.104;2022-08-01T12:49:44;27.70;70.20
22666;DHT22;11499;49.486;11.104;2022-08-01T12:52:11;27.70;70.30
22666;DHT22;11499;49.486;11.104;2022-08-01T12:54:59;27.90;69.50
22666;DHT22;11499;49.486;11.104;2022-08-01T12:57:25;28.20;69.40
22666;DHT22;11499;49.486;11.104;2022-08-01T12:59:53;28.70;67.90
22666;DHT22;11499;49.486;11.104;2022-08-01T13:04:13;28.40;66.20
22666;DHT22;11499;49.486;11.104;2022-08-01T13:06:38;28.20;65.90
22666;DHT22;11499;49.486;11.104;2022-08-01T13:09:05;28.30;65.70
22666;DHT22;11499;49.486;11.104;2022-08-01T13:11:31;28.20;64.90
22666;DHT22;11499;49.486;11.104;2022-08-01T13:13:57;28.10;64.50
22666;DHT22;11499;49.486;11.104;2022-08-01T13:16:24;28.40;65.10
22666;DHT22;11499;49.486;11.104;2022-08-01T13:18:55;28.70;64.90
22666;DHT22;11499;49.486;11.104;2022-08-01T13:21:24;28.70;66.60
22666;DHT22;11499;49.486;11.104;2022-08-01T13:24:10;28.50;67.00
22666;DHT22;11499;49.486;11.104;2022-08-01T13:29:36;28.60;66.90
22666;DHT22;11499;49.486;11.104;2022-08-01T13:32:13;28.70;66.20
22666;DHT22;11499;49.486;11.104;2022-08-01T13:34:39;28.30;66.60
22666;DHT22;11499;49.486;11.104;2022-08-01T13:37:04;28.50;65.80
22666;DHT22;11499;49.486;11.104;2022-08-01T13:39:30;28.80;65.50
22666;DHT22;11499;49.486;11.104;2022-08-01T13:42:11;29.70;63.80
22666;DHT22;11499;49.486;11.104;2022-08-01T13:44:37;29.70;64.00
22666;DHT22;11499;49.486;11.104;2022-08-01T13:47:03;29.70;63.00
22666;DHT22;11499;49.486;11.104;2022-08-01T13:49:29;29.60;62.40
22666;DHT22;11499;49.486;11.104;2022-08-01T13:51:55;30.00;62.70
22666;DHT22;11499;49.486;11.104;2022-08-01T13:56:47;30.10;62.00
22666;DHT22;11499;49.486;11.104;2022-08-01T13:59:13;30.50;60.80
22666;DHT22;11499;49.486;11.104;2022-08-01T14:01:38;30.20;61.00
22666;DHT22;11499;49.486;11.104;2022-08-01T14:04:04;29.40;62.20
22666;DHT22;11499;49.486;11.104;2022-08-01T14:06:31;29.30;62.70
22666;DHT22;11499;49.486;11.104;2022-08-01T14:08:57;30.00;62.10
22666;DHT22;11499;49.486;11.104;2022-08-01T14:11:22;30.40;60.80
22666;DHT22;11499;49.486;11.104;2022-08-01T14:13:48;29.50;60.60
22666;DHT22;11499;49.486;11.104;2022-08-01T14:16:14;28.80;61.10
22666;DHT22;11499;49.486;11.104;2022-08-01T14:18:40;29.30;60.20
22666;DHT22;11499;49.486;11.104;2022-08-01T14:23:06;29.90;59.70
22666;DHT22;11499;49.486;11.104;2022-08-01T14:25:31;30.40;59.10
22666;DHT22;11499;49.486;11.104;2022-08-01T14:27:57;29.80;58.50
22666;DHT22;11499;49.486;11.104;2022-08-01T14:30:22;29.40;58.80
22666;DHT22;11499;49.486;11.104;2022-08-01T14:32:48;29.80;58.00
22666;DHT22;11499;49.486;11.104;2022-08-01T14:35:13;29.30;59.00
22666;DHT22;11499;49.486;11.104;2022-08-01T14:37:39;29.30;59.00
22666;DHT22;11499;49.486;11.104;2022-08-01T14:40:06;29.00;59.70
22666;DHT22;11499;49.486;11.104;2022-08-01T14:42:35;29.00;59.00
22666;DHT22;11499;49.486;11.104;2022-08-01T14:45:01;29.00;59.60
22666;DHT22;11499;49.486;11.104;2022-08-01T14:49:19;28.90;59.70
22666;DHT22;11499;49.486;11.104;2022-08-01T14:51:44;29.30;59.00
22666;DHT22;11499;49.486;11.104;2022-08-01T14:54:10;29.50;59.10
22666;DHT22;11499;49.486;11.104;2022-08-01T14:56:35;28.70;59.80
22666;DHT22;11499;49.486;11.104;2022-08-01T14:59:01;28.60;59.70
22666;DHT22;11499;49.486;11.104;2022-08-01T15:01:26;28.80;59.70
22666;DHT22;11499;49.486;11.104;2022-08-01T15:03:52;29.00;59.30
22666;DHT22;11499;49.486;11.104;2022-08-01T15:06:17;28.50;60.00
22666;DHT22;11499;49.486;11.104;2022-08-01T15:08:43;28.50;59.70
22666;DHT22;11499;49.486;11.104;2022-08-01T15:11:09;29.00;59.20
22666;DHT22;11499;49.486;11.104;2022-08-01T15:16:21;29.60;58.20
22666;DHT22;11499;49.486;11.104;2022-08-01T15:18:46;29.80;57.30
22666;DHT22;11499;49.486;11.104;2022-08-01T15:21:12;29.80;57.80
22666;DHT22;11499;49.486;11.104;2022-08-01T15:23:37;29.40;57.10
22666;DHT22;11499;49.486;11.104;2022-08-01T15:26:03;29.50;56.70
22666;DHT22;11499;49.486;11.104;2022-08-01T15:28:28;29.40;56.20
22666;DHT22;11499;49.486;11.104;2022-08-01T15:30:54;29.50;56.60
22666;DHT22;11499;49.486;11.104;2022-08-01T15:33:19;29.20;55.40
22666;DHT22;11499;49.486;11.104;2022-08-01T15:35:46;29.10;54.70
22666;DHT22;11499;49.486;11.104;2022-08-01T15:38:12;29.00;55.20
22666;DHT22;11499;49.486;11.104;2022-08-01T15:43:03;29.00;55.80
22666;DHT22;11499;49.486;11.104;2022-08-01T15:45:29;28.40;58.70
22666;DHT22;11499;49.486;11.104;2022-08-01T15:47:54;28.30;59.70
22666;DHT22;11499;49.486;11.104;2022-08-01T15:50:20;28.20;60.10
22666;DHT22;11499;49.486;11.104;2022-08-01T15:52:45;28.40;60.60
22666;DHT22;11499;49.486;11.104;2022-08-01T15:55:11;28.60;60.60
22666;DHT22;11499;49.486;11.104;2022-08-01T15:57:36;28.00;62.40
22666;DHT22;11499;49.486;11.104;2022-08-01T16:00:03;28.30;62.10
22666;DHT22;11499;49.486;11.104;2022-08-01T16:02:29;27.70;63.80
22666;DHT22;11499;49.486;11.104;2022-08-01T16:07:32;27.60;64.60
22666;DHT22;11499;49.486;11.104;2022-08-01T16:09:58;28.20;64.00
22666;DHT22;11499;49.486;11.104;2022-08-01T16:12:23;28.70;63.00
22666;DHT22;11499;49.486;11.104;2022-08-01T16:14:49;28.40;62.80
22666;DHT22;11499;49.486;11.104;2022-08-01T16:17:14;28.60;62.90
22666;DHT22;11499;49.486;11.104;2022-08-01T16:19:40;28.00;64.10
22666;DHT22;11499;49.486;11.104;2022-08-01T16:22:05;28.10;64.00
22666;DHT22;11499;49.486;11.104;2022-08-01T16:24:31;28.30;63.80
22666;DHT22;11499;49.486;11.104;2022-08-01T16:26:56;28.30;63.40
22666;DHT22;11499;49.486;11.104;2022-08-01T16:29:22;28.40;62.60
22666;DHT22;11499;49.486;11.104;2022-08-01T16:34:00;28.50;62.30
22666;DHT22;11499;49.486;11.104;2022-08-01T16:36:27;28.00;63.60
22666;DHT22;11499;49.486;11.104;2022-08-01T16:38:52;27.60;65.00
22666;DHT22;11499;49.486;11.104;2022-08-01T16:41:18;27.80;64.60
22666;DHT22;11499;49.486;11.104;2022-08-01T16:43:43;27.80;63.80
22666;DHT22;11499;49.486;11.104;2022-08-01T16:46:09;27.90;63.90
22666;DHT22;11499;49.486;11.104;2022-08-01T16:48:35;27.80;64.10
22666;DHT22;11499;49.486;11.104;2022-08-01T16:51:00;27.40;65.60
22666;DHT22;11499;49.486;11.104;2022-08-01T16:53:26;26.80;67.00
22666;DHT22;11499;49.486;11.104;2022-08-01T16:55:52;26.60;68.10
22666;DHT22;11499;49.486;11.104;2022-08-01T17:00:11;26.80;68.10
22666;DHT22;11499;49.486;11.104;2022-08-01T17:02:37;26.50;68.90
22666;DHT22;11499;49.486;11.104;2022-08-01T17:05:04;26.60;68.60
22666;DHT22;11499;49.486;11.104;2022-08-01T17:07:30;26.60;68.30
22666;DHT22;11499;49.486;11.104;2022-08-01T17:09:56;26.60;68.50
22666;DHT22;11499;49.486;11.104;2022-08-01T17:12:21;26.70;68.50
22666;DHT22;11499;49.486;11.104;2022-08-01T17:14:47;26.80;68.30